Time,TemperatureF,DewpointF,PressureIn,WindDirection,WindDirectionDegrees,WindSpeedMPH,WindSpeedGustMPH,Humidity,HourlyPrecipIn,Conditions,Clouds,dailyrainin,SoftwareType,DateUTC
2013-08-29 00:00:00,69.0,69.0,30.07,NNE,30,5.0,6.0,99,-99.99,,,-99.99,,2013-08-29 05:00:00,
2013-08-29 00:23:00,70.0,69.0,30.07,NNE,30,6.0,7.0,99,-99.99,,,-99.99,,2013-08-29 05:23:00,
2013-08-29 00:42:00,69.0,69.0,30.07,NNE,30,5.0,6.0,99,-99.99,,,-99.99,,2013-08-29 05:42:00,
2013-08-29 00:52:00,69.0,69.0,30.07,NNE,30,5.0,6.0,99,-99.99,,,-99.99,,2013-08-29 05:52:00,
2013-08-29 01:21:00,69.0,69.0,30.08,NNE,20,3.0,5.0,98,-99.99,,,-99.99,,2013-08-29 06:21:00,
2013-08-29 01:32:00,69.0,69.0,30.08,NNE,20,3.0,5.0,98,-99.99,,,-99.99,,2013-08-29 06:32:00,
2013-08-29 02:11:00,69.0,69.0,30.08,NW,320,3.0,6.0,99,-99.99,,,-99.99,,2013-08-29 07:11:00,
2013-08-29 02:21:00,69.0,69.0,30.08,West,280,3.0,3.0,99,-99.99,,,-99.99,,2013-08-29 07:21:00,
2013-08-29 02:42:00,69.0,69.0,30.08,WNW,300,2.0,3.0,99,-99.99,,,-99.99,,2013-08-29 07:42:00,
2013-08-29 02:53:00,69.0,69.0,30.08,North,0,0.0,1.0,99,-99.99,,,-99.99,,2013-08-29 07:53:00,
2013-08-29 03:12:00,69.0,69.0,30.08,ENE,60,1.0,2.0,99,-99.99,,,-99.99,,2013-08-29 08:12:00,
2013-08-29 03:22:00,69.0,69.0,30.07,ENE,60,1.0,2.0,99,-99.99,,,-99.99,,2013-08-29 08:22:00,
2013-08-29 03:42:00,69.0,69.0,30.07,NE,40,3.0,5.0,99,-99.99,,,-99.99,,2013-08-29 08:42:00,
2013-08-29 03:52:00,69.0,69.0,30.07,NE,40,3.0,5.0,99,-99.99,,,-99.99,,2013-08-29 08:52:00,
2013-08-29 04:12:00,69.0,69.0,30.07,NNW,340,2.0,3.0,99,-99.99,,,-99.99,,2013-08-29 09:12:00,
2013-08-29 04:21:00,70.0,69.0,30.08,North,350,1.0,3.0,98,-99.99,,,-99.99,,2013-08-29 09:21:00,
2013-08-29 04:43:00,70.0,69.0,30.08,NW,320,1.0,1.0,99,-99.99,,,-99.99,,2013-08-29 09:43:00,
2013-08-29 04:54:00,70.0,69.0,30.08,NNE,30,1.0,2.0,99,-99.99,,,-99.99,,2013-08-29 09:54:00,
2013-08-29 05:14:00,70.0,69.0,30.09,North,360,2.0,5.0,99,-99.99,,,-99.99,,2013-08-29 10:14:00,
2013-08-29 05:24:00,70.0,69.0,30.09,NNE,30,1.0,3.0,99,-99.99,,,-99.99,,2013-08-29 10:24:00,
2013-08-29 05:53:00,69.0,69.0,30.09,North,350,5.0,6.0,99,-99.99,,,-99.99,,2013-08-29 10:53:00,
2013-08-29 06:11:00,69.0,69.0,30.09,North,10,6.0,7.0,99,-99.99,,,-99.99,,2013-08-29 11:11:00,
2013-08-29 06:22:00,69.0,69.0,30.09,North,10,6.0,7.0,99,-99.99,,,-99.99,,2013-08-29 11:22:00,
2013-08-29 06:42:00,69.0,69.0,30.09,NNE,20,5.0,7.0,99,-99.99,,,-99.99,,2013-08-29 11:42:00,
2013-08-29 06:52:00,69.0,69.0,30.10,North,10,5.0,6.0,99,-99.99,,,-99.99,,2013-08-29 11:52:00,
2013-08-29 07:11:00,69.0,69.0,30.11,NNE,20,3.0,6.0,99,-99.99,,,-99.99,,2013-08-29 12:11:00,
2013-08-29 07:22:00,69.0,69.0,30.11,NNE,30,5.0,7.0,99,-99.99,,,-99.99,,2013-08-29 12:22:00,
2013-08-29 07:42:00,69.0,69.0,30.11,NNE,20,3.0,5.0,99,-99.99,,,-99.99,,2013-08-29 12:42:00,
2013-08-29 07:52:00,69.0,69.0,30.11,NNE,20,3.0,5.0,99,-99.99,,,-99.99,,2013-08-29 12:52:00,
2013-08-29 08:12:00,69.0,69.0,30.11,North,10,3.0,5.0,99,-99.99,,,-99.99,,2013-08-29 13:12:00,
2013-08-29 08:22:00,69.0,69.0,30.12,NNE,30,3.0,6.0,99,-99.99,,,-99.99,,2013-08-29 13:22:00,
2013-08-29 08:42:00,69.0,69.0,30.12,NE,40,3.0,6.0,99,-99.99,,,-99.99,,2013-08-29 13:42:00,
2013-08-29 08:52:00,69.0,69.0,30.12,NNE,30,6.0,7.0,99,-99.99,,,-99.99,,2013-08-29 13:52:00,
2013-08-29 09:11:00,69.0,69.0,30.11,NNE,30,6.0,7.0,99,-99.99,,,-99.99,,2013-08-29 14:11:00,
2013-08-29 09:21:00,70.0,69.0,30.12,NNE,20,7.0,8.0,99,-99.99,,,-99.99,,2013-08-29 14:21:00,
2013-08-29 09:52:00,70.0,70.0,30.12,North,10,6.0,7.0,99,-99.99,,,-99.99,,2013-08-29 14:52:00,
2013-08-29 10:11:00,71.0,71.0,30.12,North,350,7.0,8.0,99,-99.99,,,-99.99,,2013-08-29 15:11:00,
2013-08-29 10:21:00,71.0,71.0,30.12,North,350,7.0,9.0,99,-99.99,,,-99.99,,2013-08-29 15:21:00,
2013-08-29 10:43:00,72.0,71.0,30.13,NNW,340,8.0,9.0,98,-99.99,,,-99.99,,2013-08-29 15:43:00,
2013-08-29 10:53:00,71.0,71.0,30.13,NNW,340,8.0,9.0,97,-99.99,,,-99.99,,2013-08-29 15:53:00,
2013-08-29 11:13:00,70.0,69.0,30.13,North,360,7.0,8.0,98,-99.99,,,-99.99,,2013-08-29 16:13:00,
2013-08-29 11:24:00,70.0,70.0,30.13,NNW,340,6.0,7.0,98,-99.99,,,-99.99,,2013-08-29 16:24:00,
2013-08-29 11:43:00,71.0,70.0,30.13,NNW,340,5.0,6.0,96,-99.99,,,-99.99,,2013-08-29 16:43:00,
2013-08-29 11:53:00,71.0,70.0,30.13,NNW,340,5.0,6.0,96,-99.99,,,-99.99,,2013-08-29 16:53:00,
2013-08-29 12:13:00,72.0,69.0,30.13,NNW,340,6.0,8.0,92,-99.99,,,-99.99,,2013-08-29 17:13:00,
2013-08-29 12:22:00,71.0,69.0,30.13,NNW,340,8.0,10.0,93,-99.99,,,-99.99,,2013-08-29 17:22:00,
2013-08-29 12:43:00,72.0,70.0,30.13,NNW,330,7.0,8.0,93,-99.99,,,-99.99,,2013-08-29 17:43:00,
2013-08-29 12:52:00,72.0,70.0,30.13,NNW,330,7.0,8.0,93,-99.99,,,-99.99,,2013-08-29 17:52:00,
2013-08-29 13:11:00,71.0,69.0,30.13,NNW,330,6.0,9.0,94,-99.99,,,-99.99,,2013-08-29 18:11:00,
2013-08-29 13:21:00,71.0,69.0,30.12,North,350,6.0,7.0,95,-99.99,,,-99.99,,2013-08-29 18:21:00,
2013-08-29 13:42:00,71.0,70.0,30.12,NNW,340,6.0,7.0,95,-99.99,,,-99.99,,2013-08-29 18:42:00,
2013-08-29 13:52:00,73.0,70.0,30.11,NNW,340,5.0,8.0,90,-99.99,,,-99.99,,2013-08-29 18:52:00,
2013-08-29 14:11:00,73.0,69.0,30.11,NNW,330,6.0,8.0,89,-99.99,,,-99.99,,2013-08-29 19:11:00,
2013-08-29 14:42:00,73.0,70.0,30.10,NNW,330,5.0,7.0,89,-99.99,,,-99.99,,2013-08-29 19:42:00,
2013-08-29 15:12:00,74.0,70.0,30.09,NW,310,5.0,7.0,86,-99.99,,,-99.99,,2013-08-29 20:12:00,
2013-08-29 15:21:00,74.0,69.0,30.09,NNW,330,6.0,8.0,85,-99.99,,,-99.99,,2013-08-29 20:21:00,
2013-08-29 15:52:00,72.0,70.0,30.09,North,350,6.0,8.0,92,-99.99,,,-99.99,,2013-08-29 20:52:00,
2013-08-29 16:11:00,71.0,69.0,30.09,North,360,7.0,8.0,95,-99.99,,,-99.99,,2013-08-29 21:11:00,
2013-08-29 16:22:00,71.0,70.0,30.08,North,350,5.0,7.0,96,-99.99,,,-99.99,,2013-08-29 21:22:00,
2013-08-29 16:33:00,71.0,70.0,30.08,North,350,5.0,7.0,96,-99.99,,,-99.99,,2013-08-29 21:33:00,
2013-08-29 16:54:00,70.0,69.0,30.07,North,10,5.0,6.0,98,-99.99,,,-99.99,,2013-08-29 21:54:00,
2013-08-29 17:24:00,70.0,70.0,30.07,North,10,6.0,7.0,98,-99.99,,,-99.99,,2013-08-29 22:24:00,
2013-08-29 17:43:00,70.0,70.0,30.07,North,10,6.0,7.0,98,-99.99,,,-99.99,,2013-08-29 22:43:00,
2013-08-29 17:53:00,70.0,70.0,30.07,North,10,6.0,7.0,98,-99.99,,,-99.99,,2013-08-29 22:53:00,
2013-08-29 18:22:00,71.0,71.0,30.06,NNE,20,5.0,6.0,98,-99.99,,,-99.99,,2013-08-29 23:22:00,
2013-08-29 18:42:00,72.0,71.0,30.06,NNE,30,6.0,7.0,98,-99.99,,,-99.99,,2013-08-29 23:42:00,
2013-08-29 18:53:00,72.0,72.0,30.06,NNE,20,6.0,6.0,98,-99.99,,,-99.99,,2013-08-29 23:53:00,
2013-08-29 19:12:00,71.0,71.0,30.05,NNE,30,6.0,7.0,98,-99.99,,,-99.99,,2013-08-30 00:12:00,
2013-08-29 19:21:00,72.0,71.0,30.05,NE,40,5.0,6.0,98,-99.99,,,-99.99,,2013-08-30 00:21:00,
2013-08-29 19:42:00,72.0,72.0,30.05,NE,40,7.0,8.0,98,-99.99,,,-99.99,,2013-08-30 00:42:00,
2013-08-29 19:52:00,72.0,72.0,30.05,NE,40,7.0,8.0,98,-99.99,,,-99.99,,2013-08-30 00:52:00,
2013-08-29 20:42:00,74.0,69.0,30.05,NE,40,3.0,5.0,86,-99.99,,,-99.99,,2013-08-30 01:42:00,
2013-08-29 20:52:00,73.0,70.0,30.05,NE,40,5.0,6.0,89,-99.99,,,-99.99,,2013-08-30 01:52:00,
2013-08-29 21:11:00,73.0,71.0,30.05,NE,50,5.0,5.0,91,-99.99,,,-99.99,,2013-08-30 02:11:00,
2013-08-29 21:42:00,73.0,70.0,30.04,ENE,60,7.0,8.0,90,-99.99,,,-99.99,,2013-08-30 02:42:00,
2013-08-29 22:12:00,72.0,71.0,30.04,ENE,60,8.0,8.0,94,-99.99,,,-99.99,,2013-08-30 03:12:00,
2013-08-29 22:54:00,72.0,70.0,30.03,NE,50,3.0,3.0,93,-99.99,,,-99.99,,2013-08-30 03:54:00,
2013-08-29 23:13:00,72.0,70.0,30.03,ESE,110,3.0,6.0,91,-99.99,,,-99.99,,2013-08-30 04:13:00,
2013-08-29 23:44:00,72.0,69.0,30.03,ESE,120,5.0,7.0,90,-99.99,,,-99.99,,2013-08-30 04:44:00,
2013-08-29 23:54:00,72.0,69.0,30.03,ESE,110,3.0,5.0,89,-99.99,,,-99.99,,2013-08-30 04:54:00,